• Join FlightAware (Why Join?)
  • Login
  • US Flag 
12:03PM EDT


 

Airport Tracker/Info


-or-


 

Live Flight TrackerFlight Track Log ✈ N601AA ✈ 09-Jun-2014 ✈ KGSO - KLEX

Flight Track Log - Related Links

Times and Time Zones

All times are in EDT time to prevent confusion due to time zone crossing. See the N601AA flight status page for this flight to view local times or setup timezone preferences in your user account.

Time Position Orientation Groundspeed Altitude Reporting Facility
EDT Latitude Longitude Course Direction KTS MPH feet Rate Location/Type
09:07PM 36.1189 -80.0622 302° West 252 290 5,600  Level Atlanta Center
09:08PM 36.1631 -80.1322 308° West 279 321 8,100 2,460 Climbing Atlanta Center
09:09PM 36.2133 -80.2119 308° West 279 321 10,600 2,400 Climbing Atlanta Center
09:10PM 36.2681 -80.2944 309° West 290 334 13,000 2,400 Climbing Atlanta Center
09:11PM 36.3189 -80.3875 304° West 316 364 15,500 2,400 Climbing Atlanta Center
09:12PM 36.4373 -80.5413 302° West  Level FlightAware Approximate
09:12PM 36.3636 -80.4936 298° West 327 376 17,900  Level Atlanta Center
09:13PM 36.4128 -80.6050 299° West 349 402 20,400 2,280 Climbing Atlanta Center
09:14PM 36.4639 -80.7189 299° West 367 422 22,500 1,500 Climbing Atlanta Center
09:15PM 36.5153 -80.8433 297° West 386 444 23,500 1,020 Climbing Atlanta Center
09:16PM 36.5706 -80.9706 298° West 398 458 24,600 1,080 Climbing Atlanta Center
09:17PM 36.6278 -81.1003 299° West 420 483 25,700 1,020 Climbing Atlanta Center
09:18PM 36.6853 -81.2353 298° West 433 498 26,700 1,020 Climbing Atlanta Center
09:19PM 36.7425 -81.3681 298° West 433 498 27,800 600 Climbing Atlanta Center
09:20PM 36.8017 -81.5058 298° West 443 510 28,000 60 Climbing Atlanta Center
09:22PM 36.8844 -81.7147 296° West 463 533 28,000  Level Indianapolis Center
09:23PM 36.9458 -81.8622 298° West 474 545 28,000  Level Indianapolis Center
09:24PM 37.0067 -82.0086 298° West 475 547 28,000  Level Indianapolis Center
09:25PM 37.0669 -82.1561 297° West 475 547 28,000  Level Indianapolis Center
09:26PM 37.1275 -82.3033 297° West 475 547 28,000  Level Indianapolis Center
09:27PM 37.1881 -82.4514 297° West 475 547 28,000 -360 Level Indianapolis Center
09:28PM 37.2489 -82.5981 298° West 476 548 27,300 -1,620 Descending Indianapolis Center
09:29PM 37.3178 -82.7722 296° West 477 549 24,800 -2,280 Descending Indianapolis Center
09:30PM 37.3753 -82.9117 297° West 464 534 22,700 -2,040 Descending Indianapolis Center
09:31PM 37.4303 -83.0483 297° West 448 516 20,700 -2,040 Descending Indianapolis Center
09:32PM 37.4856 -83.1864 297° West 446 513 18,600 -2,100 Descending Indianapolis Center
09:33PM 37.5403 -83.3242 297° West 445 512 16,500 -2,100 Descending Indianapolis Center
09:34PM 37.5928 -83.4533 297° West 424 488 14,400 -2,160 Descending Indianapolis Center
09:35PM 37.6483 -83.5944 296° West 395 455 12,100 -1,680 Descending Indianapolis Center
09:36PM 37.6942 -83.7103 297° West 377 434 11,000 -540 Descending Indianapolis Center
09:37PM 37.7381 -83.8256 296° West 370 426 11,000 -240 Level Indianapolis Center
09:38PM 37.7811 -83.9361 296° West 358 412 10,600 -1,140 Descending Indianapolis Center
09:39PM 37.8175 -84.0292 296° West 310 357 8,700 -1,860 Descending Indianapolis Center
09:40PM 37.8531 -84.1175 297° West 289 333 6,800 -1,860 Descending Indianapolis Center
09:41PM 37.8892 -84.2081 297° West 286 329 4,900 -1,380 Descending Indianapolis Center
09:42PM 37.9297 -84.3139 296° West 286 329 4,000 -480 Descending Indianapolis Center
09:43PM 37.9667 -84.4083 296° West 290 334 4,000  Level Indianapolis Center
09:44PM 38.0133 -84.4772 311° West 278 320 4,000  Level Indianapolis Center
09:45PM 38.0828 -84.4686 North 259 298 4,000 -240 Level Indianapolis Center
09:46PM 38.1581 -84.4581 North 261 300 3,600 -540 Descending Indianapolis Center
09:47PM 38.1506 -84.5131 260° West 259 298 2,900 -540 Descending Indianapolis Center
09:48PM 38.1019 -84.5333 198° South 219 252 2,500 -540 Descending Indianapolis Center
09:49PM 38.0661 -84.5731 221° Southwest 181 208 1,900 -600 Descending Indianapolis Center
09:51PM 38.0333 -84.6000 288° West  Level FlightAware Approximate